Time;durP1;ratioP1;P1;durP2;ratioP2;P2;SDS_P1;SDS_P2;PMS_P1;PMS_P2;Temp;Humidity;BMP_temperature;BMP_pressure;BME280_temperature;BME280_humidity;BME280_pressure;Samples;Min_cycle;Max_cycle;Signal;HPM_P1;HPM_P2
2022/01/06 00:00:23;;;;;;;5.07;3.13;;;15.90;84.80;;;;;;10174285;29;20243;-79
2022/01/06 00:05:25;;;;;;;4.67;2.27;;;15.80;77.60;;;;;;10172852;29;20558;-79
2022/01/06 00:10:29;;;;;;;3.10;2.67;;;15.70;85.20;;;;;;10172776;29;20263;-79
2022/01/06 00:15:43;;;;;;;5.33;2.00;;;15.80;84.80;;;;;;10173638;29;20243;-79
2022/01/06 00:26:08;;;;;;;2.67;1.87;;;15.60;84.90;;;;;;10170934;29;20609;-79
2022/01/06 00:31:10;;;;;;;3.23;2.10;;;15.60;85.00;;;;;;10170948;29;20344;-79
2022/01/06 00:36:13;;;;;;;3.03;2.23;;;15.50;85.10;;;;;;10154621;29;20621;-80
2022/01/06 00:41:15;;;;;;;3.57;1.90;;;15.10;84.40;;;;;;10171094;29;20255;-79
2022/01/06 00:46:18;;;;;;;3.70;2.07;;;15.10;84.80;;;;;;10170608;29;20645;-79
2022/01/06 00:51:21;;;;;;;2.30;2.00;;;15.20;83.20;;;;;;10155375;29;20275;-79
2022/01/06 00:56:23;;;;;;;4.47;2.53;;;15.30;84.10;;;;;;10171105;29;20243;-79
2022/01/06 01:01:26;;;;;;;2.33;1.70;;;15.40;85.30;;;;;;10137584;29;20695;-79
2022/01/06 01:06:28;;;;;;;3.77;1.90;;;15.40;85.70;;;;;;10171452;29;20291;-79
2022/01/06 01:11:31;;;;;;;1.87;1.50;;;14.90;85.70;;;;;;10153099;29;20325;-79
2022/01/06 01:16:33;;;;;;;2.47;1.77;;;15.00;86.20;;;;;;10154100;29;20814;-79
2022/01/06 01:21:36;;;;;;;2.93;1.93;;;15.30;82.00;;;;;;10130244;29;20307;-80
2022/01/06 01:26:38;;;;;;;1.77;1.63;;;15.30;85.10;;;;;;10146842;29;20705;-79
2022/01/06 01:31:47;;;;;;;2.50;1.60;;;15.40;84.90;;;;;;10137591;29;20763;-79
2022/01/06 01:36:55;;;;;;;2.43;1.70;;;15.40;84.80;;;;;;10171104;29;20273;-79
2022/01/06 01:41:57;;;;;;;1.30;1.20;;;15.40;84.90;;;;;;10153206;29;20279;-80
2022/01/06 01:47:03;;;;;;;3.40;1.67;;;15.30;85.20;;;;;;10169037;29;20267;-79
2022/01/06 01:52:05;;;;;;;2.23;1.70;;;15.10;85.30;;;;;;10152119;29;20717;-79
2022/01/06 01:57:08;;;;;;;1.87;1.40;;;15.30;85.10;;;;;;10153015;29;20241;-79
2022/01/06 02:02:10;;;;;;;2.33;1.37;;;15.20;85.10;;;;;;10168109;29;20242;-79
2022/01/06 02:07:13;;;;;;;3.37;1.60;;;15.10;84.90;;;;;;10168525;29;20247;-79
2022/01/06 02:12:24;;;;;;;3.27;2.37;;;15.20;84.90;;;;;;10168716;29;20270;-79
2022/01/06 02:17:26;;;;;;;2.43;1.30;;;15.10;84.70;;;;;;10168516;29;20257;-79
2022/01/06 02:22:29;;;;;;;2.37;1.83;;;15.10;84.80;;;;;;10168405;29;20259;-79
2022/01/06 02:27:31;;;;;;;2.63;1.30;;;14.80;86.00;;;;;;10168745;29;20294;-79
2022/01/06 02:32:34;;;;;;;2.17;1.20;;;14.70;84.20;;;;;;10146672;29;20267;-79
2022/01/06 02:37:37;;;;;;;2.97;1.40;;;15.00;85.20;;;;;;10168241;29;20231;-79
2022/01/06 02:42:46;;;;;;;2.73;1.50;;;14.90;83.90;;;;;;10151878;29;20310;-79
2022/01/06 02:47:49;;;;;;;2.00;1.20;;;14.90;85.50;;;;;;10167711;29;20875;-79
2022/01/06 02:52:52;;;;;;;5.47;1.40;;;14.80;85.20;;;;;;10147381;29;20298;-79
2022/01/06 02:57:54;;;;;;;2.37;1.33;;;14.90;85.50;;;;;;10168059;29;20247;-80
2022/01/06 03:02:58;;;;;;;1.30;1.03;;;14.70;85.80;;;;;;10166816;29;20261;-79
2022/01/06 03:08:00;;;;;;;1.57;0.93;;;9.90;83.00;;;;;;10167863;29;20241;-79
2022/01/06 03:13:03;;;;;;;2.13;1.20;;;10.20;97.30;;;;;;10174823;29;20331;-79
2022/01/06 03:18:06;;;;;;;2.27;1.17;;;12.40;92.00;;;;;;10175755;29;20702;-79
2022/01/06 03:23:08;;;;;;;2.07;1.17;;;12.70;91.40;;;;;;10173861;29;20241;-80
2022/01/06 03:28:11;;;;;;;2.20;0.90;;;13.70;91.70;;;;;;10175204;29;20736;-80
2022/01/06 03:33:13;;;;;;;1.20;0.90;;;13.90;91.10;;;;;;10158289;29;20689;-80
2022/01/06 03:38:16;;;;;;;1.87;1.13;;;14.00;84.30;;;;;;10175192;29;20295;-79
2022/01/06 03:43:19;;;;;;;4.97;1.00;;;12.70;86.50;;;;;;10175332;29;20284;-79
2022/01/06 03:48:22;;;;;;;3.17;1.57;;;13.00;73.70;;;;;;10156846;29;20272;-80
2022/01/06 03:53:24;;;;;;;3.73;2.17;;;10.50;95.30;;;;;;10173892;29;20239;-79
2022/01/06 03:58:27;;;;;;;4.90;1.83;;;9.40;97.30;;;;;;10174478;29;20233;-79
2022/01/06 04:03:29;;;;;;;1.97;1.23;;;11.00;72.10;;;;;;10156889;29;20268;-79
2022/01/06 04:08:33;;;;;;;2.37;1.13;;;11.20;92.20;;;;;;10172295;29;20208;-80
2022/01/06 04:13:35;;;;;;;2.83;1.50;;;13.00;94.90;;;;;;10173171;29;20247;-79
2022/01/06 04:18:39;;;;;;;1.83;1.17;;;12.30;93.50;;;;;;10155014;29;20682;-79
2022/01/06 04:23:41;;;;;;;1.67;1.00;;;13.10;93.70;;;;;;10156117;29;20302;-80
2022/01/06 04:28:44;;;;;;;2.00;1.20;;;13.50;92.40;;;;;;10172719;29;20306;-80
2022/01/06 04:33:46;;;;;;;3.03;1.13;;;13.60;91.90;;;;;;10155749;29;20297;-80
2022/01/06 04:38:49;;;;;;;3.80;1.20;;;13.70;91.70;;;;;;10155151;29;20254;-79
2022/01/06 04:43:52;;;;;;;1.77;1.10;;;14.10;91.10;;;;;;10172429;29;20247;-80
2022/01/06 04:48:54;;;;;;;1.67;1.13;;;14.10;90.80;;;;;;10171627;29;20271;-80
2022/01/06 04:53:57;;;;;;;3.93;2.37;;;14.20;90.70;;;;;;10169996;29;20310;-79
2022/01/06 04:58:59;;;;;;;1.77;1.30;;;14.10;85.00;;;;;;10154169;29;20243;-79
2022/01/06 05:04:02;;;;;;;3.10;1.57;;;13.90;90.70;;;;;;10151089;29;20259;-79
2022/01/06 05:09:05;;;;;;;3.60;0.90;;;14.00;90.60;;;;;;10123743;29;20633;-79
2022/01/06 05:14:07;;;;;;;1.83;0.90;;;14.10;90.60;;;;;;10144199;29;20235;-79
2022/01/06 05:19:10;;;;;;;3.40;1.40;;;14.20;90.20;;;;;;10148267;29;20251;-79
2022/01/06 05:24:15;;;;;;;2.77;1.00;;;14.20;90.00;;;;;;10161961;29;20318;-79
2022/01/06 05:29:17;;;;;;;4.43;1.50;;;14.40;89.20;;;;;;10167538;29;20270;-79
2022/01/06 05:34:20;;;;;;;1.60;1.00;;;14.10;87.00;;;;;;10142080;29;20724;-79
2022/01/06 05:39:23;;;;;;;4.00;1.10;;;14.30;88.10;;;;;;10149601;29;20239;-79
2022/01/06 05:44:26;;;;;;;2.23;0.90;;;14.60;87.60;;;;;;10130042;29;20771;-79
2022/01/06 05:49:28;;;;;;;2.07;1.00;;;14.70;86.80;;;;;;10139521;29;20306;-79
2022/01/06 05:54:31;;;;;;;4.37;1.50;;;14.80;86.30;;;;;;10168253;29;20262;-77
2022/01/06 05:59:34;;;;;;;4.70;1.90;;;13.00;63.00;;;;;;10173922;29;20251;-78
2022/01/06 06:04:37;;;;;;;4.83;1.43;;;4.40;87.50;;;;;;10175864;29;20243;-78
2022/01/06 06:09:40;;;;;;;4.33;1.40;;;3.00;95.60;;;;;;10150273;29;20259;-77
2022/01/06 06:14:42;;;;;;;6.23;1.67;;;6.50;99.90;;;;;;10181612;29;20234;-80
2022/01/06 06:19:45;;;;;;;3.90;1.43;;;8.80;90.10;;;;;;10187530;29;20685;-81
2022/01/06 06:24:47;;;;;;;7.40;1.47;;;10.80;84.80;;;;;;10169851;29;20243;-80
2022/01/06 06:29:50;;;;;;;2.33;1.40;;;12.30;80.20;;;;;;10149626;29;20739;-80
2022/01/06 06:34:53;;;;;;;4.03;0.80;;;13.00;77.30;;;;;;10167339;29;20586;-80
2022/01/06 06:39:57;;;;;;;4.03;0.87;;;13.10;74.50;;;;;;10168409;29;20671;-80
2022/01/06 06:44:59;;;;;;;4.00;0.90;;;12.90;74.00;;;;;;10174590;29;20248;-80
2022/01/06 06:50:02;;;;;;;2.47;0.90;;;13.60;72.20;;;;;;10173920;29;20270;-80
2022/01/06 06:55:05;;;;;;;2.23;0.87;;;13.30;73.50;;;;;;10176105;29;20268;-80
2022/01/06 07:00:10;;;;;;;3.90;1.00;;;13.60;72.40;;;;;;10176933;29;20316;-80
2022/01/06 07:05:15;;;;;;;7.47;0.87;;;13.30;69.80;;;;;;10159223;29;20251;-81
2022/01/06 07:10:18;;;;;;;3.67;0.90;;;13.40;71.90;;;;;;10176598;29;20255;-80
2022/01/06 07:15:20;;;;;;;1.53;0.70;;;13.40;72.70;;;;;;10160113;29;20689;-79
2022/01/06 07:20:23;;;;;;;2.43;0.73;;;13.60;73.00;;;;;;10159062;29;20302;-80
2022/01/06 07:25:25;;;;;;;1.43;0.90;;;13.30;73.50;;;;;;10173830;29;20244;-79
2022/01/06 07:30:30;;;;;;;4.30;1.10;;;11.40;72.90;;;;;;10171711;29;20271;-80
2022/01/06 07:35:32;;;;;;;1.23;1.00;;;12.00;76.30;;;;;;10173974;29;20592;-80
2022/01/06 07:40:35;;;;;;;0.97;0.73;;;13.10;82.70;;;;;;10163756;29;20320;-79
2022/01/06 07:45:37;;;;;;;1.07;0.60;;;10.20;74.90;;;;;;10140340;29;20244;-80
2022/01/06 07:50:40;;;;;;;3.00;1.30;;;9.00;81.20;;;;;;10153542;29;20260;-79
2022/01/06 07:55:43;;;;;;;1.77;0.70;;;10.80;99.90;;;;;;10137800;29;20235;-79
2022/01/06 08:00:45;;;;;;;0.47;0.40;;;8.40;99.90;;;;;;10154986;29;20243;-79
2022/01/06 08:05:48;;;;;;;0.77;0.40;;;6.40;99.90;;;;;;10155044;29;20757;-79
2022/01/06 08:10:53;;;;;;;1.63;0.50;;;9.70;99.90;;;;;;10154477;29;20314;-79
2022/01/06 08:15:56;;;;;;;3.00;0.97;;;4.70;90.40;;;;;;10173260;29;20263;-79
2022/01/06 08:20:59;;;;;;;1.77;0.83;;;4.40;99.90;;;;;;10172777;29;20302;-79
2022/01/06 08:26:01;;;;;;;1.30;0.80;;;6.40;99.90;;;;;;10156342;29;20263;-79
2022/01/06 08:31:04;;;;;;;1.17;0.70;;;8.20;99.90;;;;;;10172490;29;20259;-80
2022/01/06 08:36:06;;;;;;;1.23;1.00;;;10.70;99.90;;;;;;10173719;29;20247;-79
2022/01/06 08:41:09;;;;;;;1.20;0.67;;;10.50;99.90;;;;;;10154846;29;20237;-79
2022/01/06 08:46:12;;;;;;;1.50;0.70;;;8.80;99.90;;;;;;10171662;29;20245;-79
2022/01/06 08:51:14;;;;;;;0.90;0.70;;;11.70;78.50;;;;;;10171373;29;20307;-80
2022/01/06 08:56:17;;;;;;;1.63;0.70;;;12.00;99.90;;;;;;10172378;29;20244;-80
2022/01/06 09:01:19;;;;;;;1.57;0.80;;;13.90;84.90;;;;;;10171228;29;20295;-80
2022/01/06 09:06:22;;;;;;;1.47;0.63;;;11.40;99.90;;;;;;10154679;29;20677;-80
2022/01/06 09:11:24;;;;;;;0.47;0.47;;;13.40;68.70;;;;;;10155155;29;20269;-80
2022/01/06 09:16:27;;;;;;;1.00;0.70;;;12.60;99.90;;;;;;10164971;29;20296;-80
2022/01/06 09:21:30;;;;;;;0.97;0.60;;;12.80;99.90;;;;;;10170749;29;20247;-81
2022/01/06 09:26:34;;;;;;;0.80;0.63;;;14.90;99.90;;;;;;10171809;29;20621;-80
2022/01/06 09:31:37;;;;;;;0.77;0.60;;;15.10;99.90;;;;;;10207382;23;20341;-88
2022/01/06 09:36:43;;;;;;;0.80;0.70;;;15.60;99.90;;;;;;10213980;29;20267;-89
2022/01/06 09:41:47;;;;;;;2.00;0.80;;;14.60;99.90;;;;;;10196911;29;20251;-90
2022/01/06 09:46:51;;;;;;;1.80;0.70;;;14.80;99.90;;;;;;10195671;29;20211;-90
2022/01/06 09:51:53;;;;;;;1.53;0.93;;;14.30;99.90;;;;;;10189144;29;20279;-90
2022/01/06 09:56:56;;;;;;;5.47;1.57;;;13.40;99.90;;;;;;10221368;29;20199;-93
2022/01/06 10:01:59;;;;;;;2.00;1.37;;;4.00;69.70;;;;;;10207427;29;20219;-89
2022/01/06 10:07:06;;;;;;;5.20;1.80;;;1.40;90.10;;;;;;10197249;29;20674;-85
2022/01/06 10:12:12;;;;;;;1.73;1.20;;;1.90;95.20;;;;;;10199014;29;20483;-87
2022/01/06 10:17:33;;;;;;;3.57;1.77;;;1.30;99.90;;;;;;10195302;29;20207;-86
2022/01/06 10:22:46;;;;;;;4.90;1.57;;;3.90;99.90;;;;;;10213065;29;20237;-95
2022/01/06 10:27:52;;;;;;;4.47;2.67;;;6.50;90.30;;;;;;10220461;29;20210;-94
2022/01/06 10:32:58;;;;;;;3.63;2.13;;;7.70;82.60;;;;;;10216497;29;20289;-94
2022/01/06 10:38:01;;;;;;;3.40;1.90;;;10.90;79.00;;;;;;10218821;29;20199;-93
2022/01/06 10:43:06;;;;;;;5.37;1.67;;;7.90;73.80;;;;;;10199678;29;20207;-95
2022/01/06 10:48:08;;;;;;;4.43;1.70;;;9.90;76.20;;;;;;10215640;29;20635;-95
2022/01/06 10:53:28;;;;;;;1.60;1.30;;;11.00;76.80;;;;;;10199917;29;20289;-93
2022/01/06 10:58:31;;;;;;;3.57;1.70;;;11.70;75.50;;;;;;10215878;29;20203;-93
2022/01/06 11:03:34;;;;;;;3.70;1.80;;;11.60;80.10;;;;;;10197884;29;20585;-92
2022/01/06 11:08:41;;;;;;;2.50;1.43;;;11.60;80.60;;;;;;10198435;29;20203;-94
2022/01/06 11:13:49;;;;;;;1.50;1.20;;;12.30;77.90;;;;;;10214880;29;20643;-94
2022/01/06 11:18:53;;;;;;;1.83;1.17;;;12.40;81.40;;;;;;10215116;29;20258;-94
2022/01/06 11:24:04;;;;;;;3.60;1.57;;;12.60;80.30;;;;;;10214305;29;20211;-93
2022/01/06 11:29:07;;;;;;;2.93;1.17;;;11.60;83.20;;;;;;10213606;29;20279;-94
2022/01/06 11:34:18;;;;;;;3.47;1.73;;;11.50;87.50;;;;;;10222637;29;20231;-94
2022/01/06 11:39:29;;;;;;;3.73;2.23;;;12.50;83.00;;;;;;10222907;29;20208;-94
2022/01/06 11:44:34;;;;;;;2.37;1.27;;;11.80;85.30;;;;;;10206508;29;20207;-93
2022/01/06 11:49:43;;;;;;;4.87;2.37;;;12.20;87.60;;;;;;10224155;29;20267;-95
2022/01/06 11:54:51;;;;;;;4.83;3.10;;;12.70;80.10;;;;;;10206179;29;20277;-92
2022/01/06 11:59:54;;;;;;;2.33;1.80;;;10.80;63.00;;;;;;10207139;29;20211;-94
2022/01/06 12:04:59;;;;;;;2.63;2.00;;;12.20;73.60;;;;;;10222503;29;20274;-93
2022/01/06 12:10:09;;;;;;;2.87;1.53;;;12.70;86.60;;;;;;10209962;29;20208;-93
2022/01/06 12:15:15;;;;;;;3.93;1.73;;;13.00;84.70;;;;;;10205853;29;20287;-93
2022/01/06 12:20:23;;;;;;;3.37;1.80;;;13.00;85.00;;;;;;10204720;29;20644;-95
2022/01/06 12:25:27;;;;;;;2.13;1.43;;;12.90;84.70;;;;;;10205227;29;20213;-94
2022/01/06 12:30:37;;;;;;;3.47;2.03;;;13.00;85.20;;;;;;10218436;29;20787;-94
2022/01/06 12:35:51;;;;;;;2.50;1.60;;;12.30;84.50;;;;;;10202085;29;20592;-93
2022/01/06 12:40:55;;;;;;;2.10;1.30;;;11.50;67.10;;;;;;10201712;29;20274;-94
2022/01/06 12:46:17;;;;;;;3.70;1.80;;;12.30;89.80;;;;;;10203149;29;20208;-94
2022/01/06 12:51:25;;;;;;;2.83;1.50;;;12.70;83.30;;;;;;10218822;29;20225;-92
2022/01/06 12:56:29;;;;;;;2.60;1.93;;;13.00;83.80;;;;;;10203732;29;20670;-93
2022/01/06 13:01:32;;;;;;;3.27;1.83;;;11.20;86.40;;;;;;10219278;29;20211;-94
2022/01/06 13:06:37;;;;;;;3.90;1.70;;;12.40;89.50;;;;;;10220438;29;20251;-94
2022/01/06 13:11:51;;;;;;;3.03;2.17;;;10.00;87.00;;;;;;10206414;29;20258;-94
2022/01/06 13:17:29;;;;;;;3.67;2.00;;;12.30;89.30;;;;;;10208136;29;20262;-94
2022/01/06 13:23:12;;;;;;;2.37;1.77;;;13.30;86.70;;;;;;10200719;29;20593;-94
2022/01/06 13:28:14;;;;;;;2.07;1.40;;;12.10;88.90;;;;;;10208115;29;20219;-94
2022/01/06 13:33:21;;;;;;;2.40;1.40;;;9.90;98.50;;;;;;10224558;29;20231;-94
2022/01/06 13:38:26;;;;;;;2.53;1.77;;;11.70;93.60;;;;;;10214147;29;20259;-93
2022/01/06 13:43:30;;;;;;;3.37;1.57;;;12.30;84.50;;;;;;10225458;29;20211;-95
2022/01/06 13:48:42;;;;;;;2.50;2.00;;;10.80;95.40;;;;;;10207059;29;20215;-95
2022/01/06 13:53:53;;;;;;;2.67;1.53;;;11.70;94.60;;;;;;10208802;29;20227;-94
2022/01/06 13:58:57;;;;;;;1.93;1.50;;;11.50;94.10;;;;;;10222980;29;20201;-95
2022/01/06 14:03:59;;;;;;;2.30;1.70;;;12.60;91.80;;;;;;10185990;29;20219;-94
2022/01/06 14:09:05;;;;;;;3.30;1.50;;;11.90;92.30;;;;;;10221293;29;20262;-94
2022/01/06 14:14:09;;;;;;;3.03;1.70;;;9.50;89.00;;;;;;10220905;29;20226;-95
2022/01/06 14:19:11;;;;;;;5.87;2.37;;;9.90;98.40;;;;;;10216910;29;20212;-94
2022/01/06 14:24:14;;;;;;;4.03;2.00;;;7.50;72.50;;;;;;10198531;29;20211;-92
2022/01/06 14:29:16;;;;;;;4.73;1.67;;;4.60;99.90;;;;;;10215659;29;20207;-94
2022/01/06 14:34:18;;;;;;;3.17;1.53;;;5.00;99.90;;;;;;10215503;29;20226;-93
2022/01/06 14:39:21;;;;;;;2.60;1.53;;;8.60;99.90;;;;;;10214090;29;20267;-93
2022/01/06 14:44:23;;;;;;;2.63;1.30;;;6.60;99.90;;;;;;10224734;29;20231;-93
2022/01/06 14:49:26;;;;;;;2.43;1.60;;;6.30;99.90;;;;;;10202474;29;20270;-93
2022/01/06 14:54:28;;;;;;;1.77;1.10;;;9.40;99.90;;;;;;10238705;29;20255;-93
2022/01/06 14:59:31;;;;;;;1.93;1.10;;;5.40;99.90;;;;;;10242789;29;20215;-94
2022/01/06 15:04:35;;;;;;;2.87;1.40;;;8.60;99.90;;;;;;10246408;29;20195;-92
2022/01/06 15:09:38;;;;;;;2.70;1.80;;;8.40;81.90;;;;;;10251350;29;20568;-95
2022/01/06 15:14:41;;;;;;;3.13;2.10;;;6.00;74.30;;;;;;10246611;29;20223;-93
2022/01/06 15:19:43;;;;;;;2.23;1.40;;;5.30;80.10;;;;;;10247742;29;20301;-93
2022/01/06 15:24:46;;;;;;;3.00;1.63;;;8.00;99.90;;;;;;10237889;29;20258;-94
2022/01/06 15:29:49;;;;;;;2.13;1.20;;;9.10;99.90;;;;;;10254656;29;20263;-94
2022/01/06 15:34:54;;;;;;;2.50;2.07;;;10.20;99.90;;;;;;10244952;29;20258;-94
2022/01/06 15:39:56;;;;;;;1.93;1.30;;;11.50;99.90;;;;;;10244326;29;20267;-94
2022/01/06 15:44:59;;;;;;;1.87;1.47;;;12.50;99.90;;;;;;10225711;29;20218;-94
2022/01/06 15:50:02;;;;;;;2.70;1.97;;;12.90;98.20;;;;;;10239659;29;20218;-93
2022/01/06 15:55:07;;;;;;;1.63;1.20;;;12.50;95.70;;;;;;10262171;29;20311;-95
2022/01/06 16:05:25;;;;;;;2.17;1.50;;;12.30;90.30;;;;;;10264245;29;20193;-95
2022/01/06 16:10:45;;;;;;;2.97;1.97;;;13.00;95.60;;;;;;10249739;29;20210;-95
2022/01/06 16:22:02;;;;;;;2.97;1.73;;;13.50;94.00;;;;;;11212581;23;20293;-94
2022/01/06 16:27:06;;;;;;;2.90;1.90;;;13.50;94.00;;;;;;10244814;29;20226;-94
2022/01/06 16:32:17;;;;;;;3.43;2.23;;;13.50;93.50;;;;;;10256968;29;20282;-93
2022/01/06 16:37:20;;;;;;;2.77;2.00;;;13.10;91.10;;;;;;10232136;29;20194;-93
2022/01/06 16:42:22;;;;;;;2.10;1.53;;;13.00;90.10;;;;;;10230004;29;20217;-94
2022/01/06 16:47:33;;;;;;;2.20;1.67;;;13.40;93.50;;;;;;10242850;29;20222;-94
2022/01/06 16:52:51;;;;;;;2.40;1.70;;;13.40;93.40;;;;;;10202621;29;20233;-94
2022/01/06 16:57:56;;;;;;;2.43;1.87;;;13.30;93.50;;;;;;10184435;29;20233;-93
2022/01/06 17:02:58;;;;;;;2.10;1.80;;;13.60;93.10;;;;;;10210065;29;20216;-93
2022/01/06 17:08:01;;;;;;;3.17;1.80;;;13.70;92.60;;;;;;10183706;29;20269;-93
2022/01/06 17:13:03;;;;;;;3.57;2.27;;;13.70;92.60;;;;;;10174088;29;20661;-93
2022/01/06 17:18:06;;;;;;;3.00;2.30;;;13.60;92.50;;;;;;10173447;29;20219;-92
2022/01/06 17:23:09;;;;;;;3.27;2.40;;;13.60;92.50;;;;;;10186126;29;20295;-93
2022/01/06 17:28:11;;;;;;;2.67;1.90;;;13.60;92.40;;;;;;10212978;29;20214;-92
2022/01/06 17:33:14;;;;;;;5.60;2.77;;;13.50;92.70;;;;;;10215979;29;20598;-92
2022/01/06 17:38:16;;;;;;;5.20;2.60;;;13.30;92.90;;;;;;10215353;29;20211;-91
2022/01/06 17:43:19;;;;;;;4.80;2.40;;;13.50;92.90;;;;;;10217921;29;20207;-93
2022/01/06 17:48:22;;;;;;;2.77;2.20;;;13.50;92.90;;;;;;10213122;29;20594;-92
2022/01/06 17:53:24;;;;;;;4.37;2.57;;;13.30;92.90;;;;;;10214499;29;20277;-91
2022/01/06 17:58:27;;;;;;;2.83;2.20;;;13.40;93.10;;;;;;10214362;29;20246;-92
2022/01/06 18:03:29;;;;;;;4.17;2.70;;;13.50;92.90;;;;;;10212507;29;20274;-91
2022/01/06 18:13:35;;;;;;;4.23;2.27;;;13.50;92.90;;;;;;10214788;29;20591;-91
2022/01/06 18:18:40;;;;;;;4.70;2.63;;;13.40;92.80;;;;;;10196985;29;20222;-92
2022/01/06 18:23:42;;;;;;;5.10;2.70;;;13.30;92.60;;;;;;10212167;29;20230;-91
2022/01/06 18:28:45;;;;;;;4.87;2.77;;;13.20;93.20;;;;;;10213439;29;20210;-91
2022/01/06 18:33:48;;;;;;;7.30;2.80;;;13.40;92.90;;;;;;10213159;29;20278;-92
2022/01/06 18:38:52;;;;;;;3.63;2.20;;;13.30;93.20;;;;;;10197320;29;20211;-91
2022/01/06 18:43:55;;;;;;;4.40;2.60;;;13.30;93.20;;;;;;10213272;29;20218;-91
2022/01/06 18:48:58;;;;;;;4.30;2.47;;;13.30;93.20;;;;;;10196259;29;20218;-91
2022/01/06 18:54:00;;;;;;;4.73;3.23;;;13.30;93.30;;;;;;10211187;29;20281;-93
2022/01/06 18:59:06;;;;;;;4.63;3.27;;;13.30;93.10;;;;;;10195838;29;20211;-91
2022/01/06 19:04:08;;;;;;;5.50;3.10;;;13.40;92.90;;;;;;10197188;29;20254;-93
2022/01/06 19:09:11;;;;;;;6.60;3.20;;;13.50;92.50;;;;;;10210794;29;20630;-91
2022/01/06 19:14:13;;;;;;;4.63;2.97;;;13.50;92.60;;;;;;10211012;29;20232;-92
2022/01/06 19:19:16;;;;;;;4.07;3.37;;;13.50;92.40;;;;;;10212445;29;20211;-92
2022/01/06 19:24:19;;;;;;;7.07;3.83;;;13.40;92.70;;;;;;10212063;29;20234;-92
2022/01/06 19:29:23;;;;;;;6.10;3.57;;;13.30;92.70;;;;;;10212740;29;20215;-92
2022/01/06 19:34:46;;;;;;;4.17;2.70;;;13.50;92.30;;;;;;10210556;29;20234;-92
2022/01/06 19:39:49;;;;;;;5.77;3.23;;;13.70;92.10;;;;;;10211015;29;20207;-92
2022/01/06 19:44:51;;;;;;;4.50;3.00;;;13.70;91.90;;;;;;10195123;29;20241;-93
2022/01/06 19:49:59;;;;;;;6.57;3.40;;;13.70;91.70;;;;;;10211942;29;20207;-92
2022/01/06 19:55:03;;;;;;;5.70;3.30;;;13.60;91.70;;;;;;10218744;29;20620;-92
2022/01/06 20:00:10;;;;;;;6.30;3.60;;;13.80;91.50;;;;;;10217765;29;20210;-93
2022/01/06 20:05:13;;;;;;;6.37;3.33;;;13.80;91.30;;;;;;10218494;29;20243;-92
2022/01/06 20:10:16;;;;;;;6.43;3.43;;;13.60;91.30;;;;;;10201027;29;20631;-93
2022/01/06 20:15:18;;;;;;;5.03;3.10;;;13.50;91.70;;;;;;10216919;29;20589;-90
2022/01/06 20:20:31;;;;;;;4.17;2.97;;;13.60;91.50;;;;;;10216659;29;20207;-90
2022/01/06 20:25:33;;;;;;;5.30;3.23;;;13.40;91.70;;;;;;10213711;29;20237;-92
2022/01/06 20:30:37;;;;;;;5.83;3.80;;;13.30;91.90;;;;;;10217555;29;20259;-91
2022/01/06 20:35:40;;;;;;;5.43;3.60;;;13.20;92.30;;;;;;10200411;29;20277;-93
2022/01/06 20:40:43;;;;;;;6.37;3.43;;;13.20;92.50;;;;;;10215535;29;20242;-93
2022/01/06 20:45:46;;;;;;;6.30;3.80;;;13.10;92.60;;;;;;10217012;29;20214;-94
2022/01/06 20:56:10;;;;;;;7.47;3.80;;;12.90;93.10;;;;;;10216692;29;20668;-92
2022/01/06 21:01:13;;;;;;;5.77;3.60;;;12.90;93.30;;;;;;10216241;29;20242;-91
2022/01/06 21:06:17;;;;;;;6.60;3.17;;;12.80;93.60;;;;;;10183192;29;20218;-92
2022/01/06 21:11:19;;;;;;;8.43;3.70;;;13.10;93.20;;;;;;10199565;29;20207;-93
2022/01/06 21:16:22;;;;;;;5.30;3.50;;;13.20;92.80;;;;;;10213787;29;20611;-92
2022/01/06 21:21:25;;;;;;;6.03;3.60;;;13.40;92.60;;;;;;10215771;29;20203;-92
2022/01/06 21:26:28;;;;;;;4.40;3.13;;;13.30;92.40;;;;;;10215432;29;20607;-93
2022/01/06 21:31:30;;;;;;;6.53;4.60;;;13.40;92.20;;;;;;10215313;29;20269;-93
2022/01/06 21:36:33;;;;;;;7.67;4.57;;;13.30;92.30;;;;;;10214861;29;20222;-91
2022/01/06 21:41:36;;;;;;;7.20;4.17;;;13.20;92.20;;;;;;10213139;29;20203;-92
2022/01/06 21:46:39;;;;;;;8.40;4.67;;;12.70;93.50;;;;;;10214932;29;20214;-93
2022/01/06 21:51:42;;;;;;;6.93;4.67;;;12.30;94.40;;;;;;10214554;29;20584;-93
2022/01/06 21:56:46;;;;;;;6.00;4.30;;;12.60;94.60;;;;;;10214155;29;20239;-92
2022/01/06 22:01:49;;;;;;;7.57;4.73;;;12.70;94.10;;;;;;10213930;29;20316;-92
2022/01/06 22:06:52;;;;;;;5.13;4.33;;;12.40;94.50;;;;;;10212832;29;20277;-92
2022/01/06 22:11:54;;;;;;;7.03;4.87;;;12.10;95.50;;;;;;10213775;29;20214;-92
2022/01/06 22:16:57;;;;;;;6.27;3.80;;;12.10;95.90;;;;;;10213007;29;20598;-92
2022/01/06 22:21:59;;;;;;;9.70;5.97;;;12.20;95.70;;;;;;10212539;29;20235;-93
2022/01/06 22:27:02;;;;;;;8.50;4.63;;;12.30;95.70;;;;;;10196228;29;20573;-92
2022/01/06 22:32:04;;;;;;;9.00;6.03;;;12.50;95.50;;;;;;10211602;29;20693;-93
2022/01/06 22:37:07;;;;;;;7.93;5.43;;;12.80;94.90;;;;;;10213382;29;20230;-92
2022/01/06 22:42:10;;;;;;;9.70;5.60;;;12.90;94.70;;;;;;10210993;29;20707;-93
2022/01/06 22:47:13;;;;;;;8.77;5.20;;;13.20;93.90;;;;;;10212950;29;20254;-92
2022/01/06 22:52:16;;;;;;;9.90;4.97;;;13.30;93.40;;;;;;10195979;29;20270;-93
2022/01/06 22:57:19;;;;;;;11.50;5.70;;;13.20;93.40;;;;;;10211284;29;20234;-93
2022/01/06 23:02:21;;;;;;;11.07;5.77;;;13.20;93.70;;;;;;10212088;29;20203;-92
2022/01/06 23:07:24;;;;;;;14.03;5.97;;;13.00;93.60;;;;;;10196016;29;20211;-93
2022/01/06 23:12:26;;;;;;;10.97;6.97;;;12.80;94.00;;;;;;10212291;29;20211;-93
2022/01/06 23:17:32;;;;;;;13.57;7.27;;;12.50;94.80;;;;;;10212070;29;20238;-92
2022/01/06 23:22:34;;;;;;;12.20;6.17;;;12.10;94.80;;;;;;10212300;29;20301;-93
2022/01/06 23:27:38;;;;;;;11.30;6.07;;;11.70;96.30;;;;;;10218129;29;20213;-92
2022/01/06 23:32:41;;;;;;;9.73;6.37;;;11.40;97.50;;;;;;10219811;29;20269;-94
2022/01/06 23:37:45;;;;;;;8.43;5.57;;;11.40;98.40;;;;;;10218279;29;20238;-93
2022/01/06 23:42:48;;;;;;;11.97;6.73;;;11.30;98.80;;;;;;10217790;29;20274;-93
2022/01/06 23:47:51;;;;;;;13.37;7.23;;;11.50;98.70;;;;;;10219251;29;20218;-93
2022/01/06 23:52:54;;;;;;;15.83;7.20;;;11.70;98.60;;;;;;10217776;29;20273;-92
2022/01/06 23:58:00;;;;;;;10.87;6.73;;;11.60;98.30;;;;;;10218392;29;20547;-93
